sensor_id;sensor_type;location;lat;lon;timestamp;temperature;humidity
73955;DHT22;62306;52.516;13.290;2023-03-14T00:00:22;12.20;98.10
73955;DHT22;62306;52.516;13.290;2023-03-14T00:02:52;12.20;98.20
73955;DHT22;62306;52.516;13.290;2023-03-14T00:05:19;12.20;98.00
73955;DHT22;62306;52.516;13.290;2023-03-14T00:07:46;12.20;98.20
73955;DHT22;62306;52.516;13.290;2023-03-14T00:10:15;12.10;98.30
73955;DHT22;62306;52.516;13.290;2023-03-14T00:12:42;12.10;98.20
73955;DHT22;62306;52.516;13.290;2023-03-14T00:15:10;12.10;98.20
73955;DHT22;62306;52.516;13.290;2023-03-14T00:17:39;12.00;98.40
73955;DHT22;62306;52.516;13.290;2023-03-14T00:20:07;12.00;98.40
73955;DHT22;62306;52.516;13.290;2023-03-14T00:22:37;12.00;98.50
73955;DHT22;62306;52.516;13.290;2023-03-14T00:25:05;11.90;98.50
73955;DHT22;62306;52.516;13.290;2023-03-14T00:27:32;11.90;98.60
73955;DHT22;62306;52.516;13.290;2023-03-14T00:29:59;11.90;98.50
73955;DHT22;62306;52.516;13.290;2023-03-14T00:32:26;11.80;98.50
73955;DHT22;62306;52.516;13.290;2023-03-14T00:34:55;11.90;98.60
73955;DHT22;62306;52.516;13.290;2023-03-14T00:37:22;11.80;98.70
73955;DHT22;62306;52.516;13.290;2023-03-14T00:39:50;11.80;98.80
73955;DHT22;62306;52.516;13.290;2023-03-14T00:42:17;11.80;98.90
73955;DHT22;62306;52.516;13.290;2023-03-14T00:44:44;11.80;98.90
73955;DHT22;62306;52.516;13.290;2023-03-14T00:47:11;11.80;99.00
73955;DHT22;62306;52.516;13.290;2023-03-14T00:49:38;11.70;99.10
73955;DHT22;62306;52.516;13.290;2023-03-14T00:52:06;11.80;99.10
73955;DHT22;62306;52.516;13.290;2023-03-14T00:54:33;11.70;99.20
73955;DHT22;62306;52.516;13.290;2023-03-14T00:57:00;11.70;99.30
73955;DHT22;62306;52.516;13.290;2023-03-14T00:59:27;11.70;99.30
73955;DHT22;62306;52.516;13.290;2023-03-14T01:01:54;11.70;99.30
73955;DHT22;62306;52.516;13.290;2023-03-14T01:04:21;11.70;99.40
73955;DHT22;62306;52.516;13.290;2023-03-14T01:06:48;11.70;99.40
73955;DHT22;62306;52.516;13.290;2023-03-14T01:09:17;11.70;99.50
73955;DHT22;62306;52.516;13.290;2023-03-14T01:11:44;11.60;99.60
73955;DHT22;62306;52.516;13.290;2023-03-14T01:14:12;11.60;99.60
73955;DHT22;62306;52.516;13.290;2023-03-14T01:16:39;11.60;99.80
73955;DHT22;62306;52.516;13.290;2023-03-14T01:19:06;11.60;99.80
73955;DHT22;62306;52.516;13.290;2023-03-14T01:21:34;11.50;99.90
73955;DHT22;62306;52.516;13.290;2023-03-14T01:24:03;11.50;99.90
73955;DHT22;62306;52.516;13.290;2023-03-14T01:26:33;11.50;99.90
73955;DHT22;62306;52.516;13.290;2023-03-14T01:29:01;11.50;99.90
73955;DHT22;62306;52.516;13.290;2023-03-14T01:31:29;11.60;99.90
73955;DHT22;62306;52.516;13.290;2023-03-14T01:33:56;11.60;99.90
73955;DHT22;62306;52.516;13.290;2023-03-14T01:36:23;11.60;99.90
73955;DHT22;62306;52.516;13.290;2023-03-14T01:38:50;11.60;99.90
73955;DHT22;62306;52.516;13.290;2023-03-14T01:41:19;11.60;99.90
73955;DHT22;62306;52.516;13.290;2023-03-14T01:43:47;11.60;99.90
73955;DHT22;62306;52.516;13.290;2023-03-14T01:46:21;11.50;99.90
73955;DHT22;62306;52.516;13.290;2023-03-14T01:48:54;11.60;99.90
73955;DHT22;62306;52.516;13.290;2023-03-14T01:51:26;11.60;99.90
73955;DHT22;62306;52.516;13.290;2023-03-14T01:53:59;11.50;99.90
73955;DHT22;62306;52.516;13.290;2023-03-14T01:56:28;11.60;99.90
73955;DHT22;62306;52.516;13.290;2023-03-14T01:58:57;11.50;99.90
73955;DHT22;62306;52.516;13.290;2023-03-14T02:01:25;11.60;99.90
73955;DHT22;62306;52.516;13.290;2023-03-14T02:03:54;11.50;99.90
73955;DHT22;62306;52.516;13.290;2023-03-14T02:06:25;11.50;99.90
73955;DHT22;62306;52.516;13.290;2023-03-14T02:08:53;11.50;99.90
73955;DHT22;62306;52.516;13.290;2023-03-14T02:11:21;11.40;99.90
73955;DHT22;62306;52.516;13.290;2023-03-14T02:13:48;11.40;99.90
73955;DHT22;62306;52.516;13.290;2023-03-14T02:16:17;11.50;99.90
73955;DHT22;62306;52.516;13.290;2023-03-14T02:18:44;11.40;99.90
73955;DHT22;62306;52.516;13.290;2023-03-14T02:21:16;11.40;99.90
73955;DHT22;62306;52.516;13.290;2023-03-14T02:23:53;11.40;99.90
73955;DHT22;62306;52.516;13.290;2023-03-14T02:26:27;11.40;99.90
73955;DHT22;62306;52.516;13.290;2023-03-14T02:28:56;11.50;99.90
73955;DHT22;62306;52.516;13.290;2023-03-14T02:31:23;11.40;99.90
73955;DHT22;62306;52.516;13.290;2023-03-14T02:33:51;11.50;99.90
73955;DHT22;62306;52.516;13.290;2023-03-14T02:36:19;11.50;99.90
73955;DHT22;62306;52.516;13.290;2023-03-14T02:38:51;11.50;99.90
73955;DHT22;62306;52.516;13.290;2023-03-14T02:41:19;11.50;99.90
73955;DHT22;62306;52.516;13.290;2023-03-14T02:43:46;11.50;99.90
73955;DHT22;62306;52.516;13.290;2023-03-14T02:46:16;11.50;99.90
73955;DHT22;62306;52.516;13.290;2023-03-14T02:48:48;11.50;99.80
73955;DHT22;62306;52.516;13.290;2023-03-14T02:51:16;11.40;99.80
73955;DHT22;62306;52.516;13.290;2023-03-14T02:53:43;11.40;99.90
73955;DHT22;62306;52.516;13.290;2023-03-14T02:56:10;11.40;99.90
73955;DHT22;62306;52.516;13.290;2023-03-14T02:58:38;11.30;99.90
73955;DHT22;62306;52.516;13.290;2023-03-14T03:01:05;11.30;99.90
73955;DHT22;62306;52.516;13.290;2023-03-14T03:03:34;11.20;99.90
73955;DHT22;62306;52.516;13.290;2023-03-14T03:06:01;11.20;99.90
73955;DHT22;62306;52.516;13.290;2023-03-14T03:08:29;11.20;99.90
73955;DHT22;62306;52.516;13.290;2023-03-14T03:10:57;11.20;99.90
73955;DHT22;62306;52.516;13.290;2023-03-14T03:13:24;11.20;99.90
73955;DHT22;62306;52.516;13.290;2023-03-14T03:15:52;11.20;99.90
73955;DHT22;62306;52.516;13.290;2023-03-14T03:18:20;11.20;99.90
73955;DHT22;62306;52.516;13.290;2023-03-14T03:20:48;11.20;99.90
73955;DHT22;62306;52.516;13.290;2023-03-14T03:23:15;11.10;99.90
73955;DHT22;62306;52.516;13.290;2023-03-14T03:25:42;11.20;99.90
73955;DHT22;62306;52.516;13.290;2023-03-14T03:28:14;11.20;99.90
73955;DHT22;62306;52.516;13.290;2023-03-14T03:30:41;11.10;99.90
73955;DHT22;62306;52.516;13.290;2023-03-14T03:33:09;11.10;99.90
73955;DHT22;62306;52.516;13.290;2023-03-14T03:35:42;11.10;99.90
73955;DHT22;62306;52.516;13.290;2023-03-14T03:38:12;11.20;99.90
73955;DHT22;62306;52.516;13.290;2023-03-14T03:40:39;11.20;99.90
73955;DHT22;62306;52.516;13.290;2023-03-14T03:43:06;11.10;99.90
73955;DHT22;62306;52.516;13.290;2023-03-14T03:45:33;11.10;99.90
73955;DHT22;62306;52.516;13.290;2023-03-14T03:48:00;11.10;99.90
73955;DHT22;62306;52.516;13.290;2023-03-14T03:50:27;11.10;99.90
73955;DHT22;62306;52.516;13.290;2023-03-14T03:52:54;11.10;99.70
73955;DHT22;62306;52.516;13.290;2023-03-14T03:55:22;11.10;99.80
73955;DHT22;62306;52.516;13.290;2023-03-14T03:57:51;11.10;99.50
73955;DHT22;62306;52.516;13.290;2023-03-14T04:00:18;11.10;99.40
73955;DHT22;62306;52.516;13.290;2023-03-14T04:02:45;11.10;99.50
73955;DHT22;62306;52.516;13.290;2023-03-14T04:05:12;11.10;99.50
73955;DHT22;62306;52.516;13.290;2023-03-14T04:07:39;11.10;99.30
73955;DHT22;62306;52.516;13.290;2023-03-14T04:10:06;11.10;99.30
73955;DHT22;62306;52.516;13.290;2023-03-14T04:12:34;11.10;98.90
73955;DHT22;62306;52.516;13.290;2023-03-14T04:15:01;11.10;99.30
73955;DHT22;62306;52.516;13.290;2023-03-14T04:17:28;11.10;99.20
73955;DHT22;62306;52.516;13.290;2023-03-14T04:19:56;11.00;99.20
73955;DHT22;62306;52.516;13.290;2023-03-14T04:22:22;11.10;98.90
73955;DHT22;62306;52.516;13.290;2023-03-14T04:24:49;11.10;98.70
73955;DHT22;62306;52.516;13.290;2023-03-14T04:27:16;11.10;98.90
73955;DHT22;62306;52.516;13.290;2023-03-14T04:29:45;11.10;98.80
73955;DHT22;62306;52.516;13.290;2023-03-14T04:32:11;11.10;98.80
73955;DHT22;62306;52.516;13.290;2023-03-14T04:34:38;11.10;98.70
73955;DHT22;62306;52.516;13.290;2023-03-14T04:37:05;11.10;98.80
73955;DHT22;62306;52.516;13.290;2023-03-14T04:39:32;11.10;98.60
73955;DHT22;62306;52.516;13.290;2023-03-14T04:41:59;11.20;98.10
73955;DHT22;62306;52.516;13.290;2023-03-14T04:44:26;11.20;98.20
73955;DHT22;62306;52.516;13.290;2023-03-14T04:46:55;11.10;98.10
73955;DHT22;62306;52.516;13.290;2023-03-14T04:49:22;11.10;98.20
73955;DHT22;62306;52.516;13.290;2023-03-14T04:51:49;11.10;98.00
73955;DHT22;62306;52.516;13.290;2023-03-14T04:54:16;11.10;98.20
73955;DHT22;62306;52.516;13.290;2023-03-14T04:56:43;11.10;98.30
73955;DHT22;62306;52.516;13.290;2023-03-14T04:59:10;11.10;98.20
73955;DHT22;62306;52.516;13.290;2023-03-14T05:01:37;11.10;98.10
73955;DHT22;62306;52.516;13.290;2023-03-14T05:04:06;11.10;98.20
73955;DHT22;62306;52.516;13.290;2023-03-14T05:06:32;11.10;98.20
73955;DHT22;62306;52.516;13.290;2023-03-14T05:09:00;11.10;97.80
73955;DHT22;62306;52.516;13.290;2023-03-14T05:11:27;11.10;97.60
73955;DHT22;62306;52.516;13.290;2023-03-14T05:13:55;11.10;97.70
73955;DHT22;62306;52.516;13.290;2023-03-14T05:16:21;11.20;97.60
73955;DHT22;62306;52.516;13.290;2023-03-14T05:18:48;11.20;97.40
73955;DHT22;62306;52.516;13.290;2023-03-14T05:21:17;11.80;97.60
73955;DHT22;62306;52.516;13.290;2023-03-14T05:23:44;11.20;97.50
73955;DHT22;62306;52.516;13.290;2023-03-14T05:26:11;11.20;97.40
73955;DHT22;62306;52.516;13.290;2023-03-14T05:28:37;11.10;97.40
73955;DHT22;62306;52.516;13.290;2023-03-14T05:31:07;11.10;97.50
73955;DHT22;62306;52.516;13.290;2023-03-14T05:33:34;11.10;97.50
73955;DHT22;62306;52.516;13.290;2023-03-14T05:36:01;11.10;97.30
73955;DHT22;62306;52.516;13.290;2023-03-14T05:38:29;11.10;97.40
73955;DHT22;62306;52.516;13.290;2023-03-14T05:40:56;11.10;97.20
73955;DHT22;62306;52.516;13.290;2023-03-14T05:43:23;11.10;97.00
73955;DHT22;62306;52.516;13.290;2023-03-14T05:45:50;11.10;97.10
73955;DHT22;62306;52.516;13.290;2023-03-14T05:48:17;11.10;97.10
73955;DHT22;62306;52.516;13.290;2023-03-14T05:50:44;11.10;97.20
73955;DHT22;62306;52.516;13.290;2023-03-14T05:53:11;11.10;96.60
73955;DHT22;62306;52.516;13.290;2023-03-14T05:55:40;11.20;96.60
73955;DHT22;62306;52.516;13.290;2023-03-14T05:58:07;11.20;96.20
73955;DHT22;62306;52.516;13.290;2023-03-14T06:00:34;11.20;96.40
73955;DHT22;62306;52.516;13.290;2023-03-14T06:03:00;11.30;96.10
73955;DHT22;62306;52.516;13.290;2023-03-14T06:05:27;11.20;96.30
73955;DHT22;62306;52.516;13.290;2023-03-14T06:07:54;11.20;96.00
73955;DHT22;62306;52.516;13.290;2023-03-14T06:10:21;11.30;95.90
73955;DHT22;62306;52.516;13.290;2023-03-14T06:12:50;11.30;95.70
73955;DHT22;62306;52.516;13.290;2023-03-14T06:15:17;11.40;95.50
73955;DHT22;62306;52.516;13.290;2023-03-14T06:17:44;11.40;95.00
73955;DHT22;62306;52.516;13.290;2023-03-14T06:20:11;11.50;94.50
73955;DHT22;62306;52.516;13.290;2023-03-14T06:22:38;11.60;94.30
73955;DHT22;62306;52.516;13.290;2023-03-14T06:25:06;11.60;94.50
73955;DHT22;62306;52.516;13.290;2023-03-14T06:27:33;11.70;94.10
73955;DHT22;62306;52.516;13.290;2023-03-14T06:30:02;11.70;94.00
73955;DHT22;62306;52.516;13.290;2023-03-14T06:32:29;11.70;94.00
73955;DHT22;62306;52.516;13.290;2023-03-14T06:34:56;11.70;93.80
73955;DHT22;62306;52.516;13.290;2023-03-14T06:37:26;11.80;93.30
73955;DHT22;62306;52.516;13.290;2023-03-14T06:39:53;11.90;93.10
73955;DHT22;62306;52.516;13.290;2023-03-14T06:42:20;12.00;93.10
73955;DHT22;62306;52.516;13.290;2023-03-14T06:44:47;12.00;92.40
73955;DHT22;62306;52.516;13.290;2023-03-14T06:47:16;12.10;92.40
73955;DHT22;62306;52.516;13.290;2023-03-14T06:49:43;12.20;92.10
73955;DHT22;62306;52.516;13.290;2023-03-14T06:52:10;12.30;91.70
73955;DHT22;62306;52.516;13.290;2023-03-14T06:54:37;12.10;91.90
73955;DHT22;62306;52.516;13.290;2023-03-14T06:57:03;12.40;91.30
73955;DHT22;62306;52.516;13.290;2023-03-14T06:59:30;12.50;91.30
73955;DHT22;62306;52.516;13.290;2023-03-14T07:01:57;12.60;91.00
73955;DHT22;62306;52.516;13.290;2023-03-14T07:04:26;12.80;90.00
73955;DHT22;62306;52.516;13.290;2023-03-14T07:06:53;12.90;90.20
73955;DHT22;62306;52.516;13.290;2023-03-14T07:09:20;13.10;90.00
73955;DHT22;62306;52.516;13.290;2023-03-14T07:11:47;13.20;88.70
73955;DHT22;62306;52.516;13.290;2023-03-14T07:14:14;13.20;88.70
73955;DHT22;62306;52.516;13.290;2023-03-14T07:16:41;13.10;88.00
73955;DHT22;62306;52.516;13.290;2023-03-14T07:19:08;13.00;88.50
73955;DHT22;62306;52.516;13.290;2023-03-14T07:21:36;12.90;88.50
73955;DHT22;62306;52.516;13.290;2023-03-14T07:24:03;12.70;89.60
73955;DHT22;62306;52.516;13.290;2023-03-14T07:26:30;12.70;90.30
73955;DHT22;62306;52.516;13.290;2023-03-14T07:28:58;12.60;90.50
73955;DHT22;62306;52.516;13.290;2023-03-14T07:31:25;12.60;90.70
73955;DHT22;62306;52.516;13.290;2023-03-14T07:33:51;12.80;90.30
73955;DHT22;62306;52.516;13.290;2023-03-14T07:36:18;13.00;90.50
73955;DHT22;62306;52.516;13.290;2023-03-14T07:38:47;13.00;90.20
73955;DHT22;62306;52.516;13.290;2023-03-14T07:41:14;13.10;90.00
73955;DHT22;62306;52.516;13.290;2023-03-14T07:43:41;13.10;88.70
73955;DHT22;62306;52.516;13.290;2023-03-14T07:46:08;13.10;88.50
73955;DHT22;62306;52.516;13.290;2023-03-14T07:48:35;13.10;89.70
73955;DHT22;62306;52.516;13.290;2023-03-14T07:51:02;13.10;89.10
73955;DHT22;62306;52.516;13.290;2023-03-14T07:53:29;13.10;89.80
73955;DHT22;62306;52.516;13.290;2023-03-14T07:55:57;13.20;89.80
73955;DHT22;62306;52.516;13.290;2023-03-14T07:58:24;13.40;89.00
73955;DHT22;62306;52.516;13.290;2023-03-14T08:00:52;13.60;86.30
73955;DHT22;62306;52.516;13.290;2023-03-14T08:03:20;13.80;85.90
73955;DHT22;62306;52.516;13.290;2023-03-14T08:05:48;13.80;85.60
73955;DHT22;62306;52.516;13.290;2023-03-14T08:08:16;13.90;85.10
73955;DHT22;62306;52.516;13.290;2023-03-14T08:10:43;14.00;84.10
73955;DHT22;62306;52.516;13.290;2023-03-14T08:13:13;14.20;83.90
73955;DHT22;62306;52.516;13.290;2023-03-14T08:15:40;14.20;82.60
73955;DHT22;62306;52.516;13.290;2023-03-14T08:18:07;14.20;82.20
73955;DHT22;62306;52.516;13.290;2023-03-14T08:20:36;14.10;83.20
73955;DHT22;62306;52.516;13.290;2023-03-14T08:23:03;14.00;83.20
73955;DHT22;62306;52.516;13.290;2023-03-14T08:25:30;14.10;82.90
73955;DHT22;62306;52.516;13.290;2023-03-14T08:27:57;14.00;83.70
73955;DHT22;62306;52.516;13.290;2023-03-14T08:30:26;14.10;82.40
73955;DHT22;62306;52.516;13.290;2023-03-14T08:32:53;14.00;82.30
73955;DHT22;62306;52.516;13.290;2023-03-14T08:35:20;14.00;82.30
73955;DHT22;62306;52.516;13.290;2023-03-14T08:37:47;14.10;82.10
73955;DHT22;62306;52.516;13.290;2023-03-14T08:40:14;14.00;83.60
73955;DHT22;62306;52.516;13.290;2023-03-14T08:42:42;13.90;82.50
73955;DHT22;62306;52.516;13.290;2023-03-14T08:45:11;13.80;83.80
73955;DHT22;62306;52.516;13.290;2023-03-14T08:47:40;13.70;83.80
73955;DHT22;62306;52.516;13.290;2023-03-14T08:50:09;13.70;83.80
73955;DHT22;62306;52.516;13.290;2023-03-14T08:52:36;13.60;82.80
73955;DHT22;62306;52.516;13.290;2023-03-14T08:55:06;13.50;84.20
73955;DHT22;62306;52.516;13.290;2023-03-14T08:57:34;13.40;84.70
73955;DHT22;62306;52.516;13.290;2023-03-14T09:00:03;13.40;83.90
73955;DHT22;62306;52.516;13.290;2023-03-14T09:02:36;13.40;85.40
73955;DHT22;62306;52.516;13.290;2023-03-14T09:05:05;13.50;84.60
73955;DHT22;62306;52.516;13.290;2023-03-14T09:07:32;13.60;84.00
73955;DHT22;62306;52.516;13.290;2023-03-14T09:09:59;13.80;83.50
73955;DHT22;62306;52.516;13.290;2023-03-14T09:12:26;14.10;82.30
73955;DHT22;62306;52.516;13.290;2023-03-14T09:14:53;14.40;78.90
73955;DHT22;62306;52.516;13.290;2023-03-14T09:17:20;14.60;78.70
73955;DHT22;62306;52.516;13.290;2023-03-14T09:19:47;14.80;76.50
73955;DHT22;62306;52.516;13.290;2023-03-14T09:22:15;15.00;75.10
73955;DHT22;62306;52.516;13.290;2023-03-14T09:24:42;15.10;75.50
73955;DHT22;62306;52.516;13.290;2023-03-14T09:27:09;15.20;73.90
73955;DHT22;62306;52.516;13.290;2023-03-14T09:29:36;15.20;75.00
73955;DHT22;62306;52.516;13.290;2023-03-14T09:32:03;15.40;73.80
73955;DHT22;62306;52.516;13.290;2023-03-14T09:34:30;15.60;73.10
73955;DHT22;62306;52.516;13.290;2023-03-14T09:36:57;15.70;71.80
73955;DHT22;62306;52.516;13.290;2023-03-14T09:39:26;15.70;71.70
73955;DHT22;62306;52.516;13.290;2023-03-14T09:41:54;15.80;70.70
73955;DHT22;62306;52.516;13.290;2023-03-14T09:44:26;15.90;70.60
73955;DHT22;62306;52.516;13.290;2023-03-14T09:46:55;15.90;69.20
73955;DHT22;62306;52.516;13.290;2023-03-14T09:49:26;15.80;70.20
73955;DHT22;62306;52.516;13.290;2023-03-14T09:51:55;15.70;69.70
73955;DHT22;62306;52.516;13.290;2023-03-14T09:54:31;15.50;70.30
73955;DHT22;62306;52.516;13.290;2023-03-14T09:56:58;15.50;69.00
73955;DHT22;62306;52.516;13.290;2023-03-14T09:59:26;15.20;69.40
73955;DHT22;62306;52.516;13.290;2023-03-14T10:01:57;14.90;71.80
73955;DHT22;62306;52.516;13.290;2023-03-14T10:04:25;14.90;71.70
73955;DHT22;62306;52.516;13.290;2023-03-14T10:06:53;14.80;72.10
73955;DHT22;62306;52.516;13.290;2023-03-14T10:09:22;14.70;73.80
73955;DHT22;62306;52.516;13.290;2023-03-14T10:11:54;14.70;72.30
73955;DHT22;62306;52.516;13.290;2023-03-14T10:14:33;14.70;72.70
73955;DHT22;62306;52.516;13.290;2023-03-14T10:17:07;14.70;71.90
73955;DHT22;62306;52.516;13.290;2023-03-14T10:19:35;14.70;72.40
73955;DHT22;62306;52.516;13.290;2023-03-14T10:22:04;14.60;72.80
73955;DHT22;62306;52.516;13.290;2023-03-14T10:24:32;14.60;72.70
73955;DHT22;62306;52.516;13.290;2023-03-14T10:27:03;14.70;72.80
73955;DHT22;62306;52.516;13.290;2023-03-14T10:29:31;14.70;72.10
73955;DHT22;62306;52.516;13.290;2023-03-14T10:32:00;14.70;72.50
73955;DHT22;62306;52.516;13.290;2023-03-14T10:34:29;14.70;73.30
73955;DHT22;62306;52.516;13.290;2023-03-14T10:36:58;14.60;72.00
73955;DHT22;62306;52.516;13.290;2023-03-14T10:39:33;14.50;72.00
73955;DHT22;62306;52.516;13.290;2023-03-14T10:42:14;14.40;72.20
73955;DHT22;62306;52.516;13.290;2023-03-14T10:44:42;14.50;72.10
73955;DHT22;62306;52.516;13.290;2023-03-14T10:47:18;14.50;71.90
73955;DHT22;62306;52.516;13.290;2023-03-14T10:49:46;14.50;72.10
73955;DHT22;62306;52.516;13.290;2023-03-14T10:52:20;14.50;72.60
73955;DHT22;62306;52.516;13.290;2023-03-14T10:54:53;14.50;73.60
73955;DHT22;62306;52.516;13.290;2023-03-14T10:57:22;14.60;73.00
73955;DHT22;62306;52.516;13.290;2023-03-14T10:59:49;14.70;72.70
73955;DHT22;62306;52.516;13.290;2023-03-14T11:02:42;14.70;71.50
73955;DHT22;62306;52.516;13.290;2023-03-14T11:05:20;14.70;72.10
73955;DHT22;62306;52.516;13.290;2023-03-14T11:07:52;14.70;72.30
73955;DHT22;62306;52.516;13.290;2023-03-14T11:10:24;14.70;71.70
73955;DHT22;62306;52.516;13.290;2023-03-14T11:13:03;14.70;72.70
73955;DHT22;62306;52.516;13.290;2023-03-14T11:15:34;14.70;71.80
73955;DHT22;62306;52.516;13.290;2023-03-14T11:18:42;14.70;72.60
73955;DHT22;62306;52.516;13.290;2023-03-14T11:21:13;14.70;72.70
73955;DHT22;62306;52.516;13.290;2023-03-14T11:23:48;14.70;72.10
73955;DHT22;62306;52.516;13.290;2023-03-14T11:26:26;14.70;71.30
73955;DHT22;62306;52.516;13.290;2023-03-14T11:28:58;14.70;71.30
73955;DHT22;62306;52.516;13.290;2023-03-14T11:31:31;14.60;71.60
73955;DHT22;62306;52.516;13.290;2023-03-14T11:34:04;14.70;71.20
73955;DHT22;62306;52.516;13.290;2023-03-14T11:36:39;14.70;71.60
73955;DHT22;62306;52.516;13.290;2023-03-14T11:39:11;14.80;71.40
73955;DHT22;62306;52.516;13.290;2023-03-14T11:41:41;14.80;71.80
73955;DHT22;62306;52.516;13.290;2023-03-14T11:44:19;14.80;72.30
73955;DHT22;62306;52.516;13.290;2023-03-14T11:46:49;14.90;72.50
73955;DHT22;62306;52.516;13.290;2023-03-14T11:49:24;15.00;71.90
73955;DHT22;62306;52.516;13.290;2023-03-14T11:51:56;15.00;71.50
73955;DHT22;62306;52.516;13.290;2023-03-14T11:54:33;15.10;72.90
73955;DHT22;62306;52.516;13.290;2023-03-14T11:57:02;15.20;73.50
73955;DHT22;62306;52.516;13.290;2023-03-14T11:59:41;15.20;72.70
73955;DHT22;62306;52.516;13.290;2023-03-14T12:02:17;15.30;72.50
73955;DHT22;62306;52.516;13.290;2023-03-14T12:04:54;15.20;72.60
73955;DHT22;62306;52.516;13.290;2023-03-14T12:07:29;15.10;72.30
73955;DHT22;62306;52.516;13.290;2023-03-14T12:10:02;15.20;72.50
73955;DHT22;62306;52.516;13.290;2023-03-14T12:12:30;15.30;72.80
73955;DHT22;62306;52.516;13.290;2023-03-14T12:14:59;15.30;73.10
73955;DHT22;62306;52.516;13.290;2023-03-14T12:17:35;15.30;73.70
73955;DHT22;62306;52.516;13.290;2023-03-14T12:20:06;15.30;73.70
73955;DHT22;62306;52.516;13.290;2023-03-14T12:22:43;15.20;74.80
73955;DHT22;62306;52.516;13.290;2023-03-14T12:25:15;15.20;73.90
73955;DHT22;62306;52.516;13.290;2023-03-14T12:28:03;15.20;73.90
73955;DHT22;62306;52.516;13.290;2023-03-14T12:30:33;15.30;73.60
73955;DHT22;62306;52.516;13.290;2023-03-14T12:33:29;15.30;73.50
73955;DHT22;62306;52.516;13.290;2023-03-14T12:36:02;15.30;75.30
73955;DHT22;62306;52.516;13.290;2023-03-14T12:38:32;15.40;75.40
73955;DHT22;62306;52.516;13.290;2023-03-14T12:41:10;15.50;75.20
73955;DHT22;62306;52.516;13.290;2023-03-14T12:43:40;15.60;73.40
73955;DHT22;62306;52.516;13.290;2023-03-14T12:46:15;15.70;73.00
73955;DHT22;62306;52.516;13.290;2023-03-14T12:48:46;15.60;73.00
73955;DHT22;62306;52.516;13.290;2023-03-14T12:51:15;15.70;73.00
73955;DHT22;62306;52.516;13.290;2023-03-14T12:54:16;15.60;74.20
73955;DHT22;62306;52.516;13.290;2023-03-14T12:57:19;15.60;73.30
73955;DHT22;62306;52.516;13.290;2023-03-14T12:59:51;15.60;73.90
73955;DHT22;62306;52.516;13.290;2023-03-14T13:02:25;15.40;76.80
73955;DHT22;62306;52.516;13.290;2023-03-14T13:05:01;15.40;78.90
73955;DHT22;62306;52.516;13.290;2023-03-14T13:07:32;15.40;81.50
73955;DHT22;62306;52.516;13.290;2023-03-14T13:10:16;15.40;79.60
73955;DHT22;62306;52.516;13.290;2023-03-14T13:12:48;15.50;79.60
73955;DHT22;62306;52.516;13.290;2023-03-14T13:15:23;15.40;80.20
73955;DHT22;62306;52.516;13.290;2023-03-14T13:17:54;15.00;82.00
73955;DHT22;62306;52.516;13.290;2023-03-14T13:20:28;14.90;84.00
73955;DHT22;62306;52.516;13.290;2023-03-14T13:22:56;14.70;86.60
73955;DHT22;62306;52.516;13.290;2023-03-14T13:25:23;14.70;88.50
73955;DHT22;62306;52.516;13.290;2023-03-14T13:27:52;14.90;89.60
73955;DHT22;62306;52.516;13.290;2023-03-14T13:30:23;15.10;89.20
73955;DHT22;62306;52.516;13.290;2023-03-14T13:32:53;15.40;89.30
73955;DHT22;62306;52.516;13.290;2023-03-14T13:35:24;15.60;88.40
73955;DHT22;62306;52.516;13.290;2023-03-14T13:37:58;15.60;87.20
73955;DHT22;62306;52.516;13.290;2023-03-14T13:40:29;15.70;86.50
73955;DHT22;62306;52.516;13.290;2023-03-14T13:43:02;15.80;86.60
73955;DHT22;62306;52.516;13.290;2023-03-14T13:45:30;15.60;86.50
73955;DHT22;62306;52.516;13.290;2023-03-14T13:47:58;15.30;87.90
73955;DHT22;62306;52.516;13.290;2023-03-14T13:50:25;15.20;87.30
73955;DHT22;62306;52.516;13.290;2023-03-14T13:52:56;15.40;86.50
73955;DHT22;62306;52.516;13.290;2023-03-14T13:55:23;15.90;83.50
73955;DHT22;62306;52.516;13.290;2023-03-14T13:57:53;16.10;80.60
73955;DHT22;62306;52.516;13.290;2023-03-14T14:00:22;16.10;81.30
73955;DHT22;62306;52.516;13.290;2023-03-14T14:02:52;15.90;77.30
73955;DHT22;62306;52.516;13.290;2023-03-14T14:05:22;15.90;77.20
73955;DHT22;62306;52.516;13.290;2023-03-14T14:07:50;15.80;77.40
73955;DHT22;62306;52.516;13.290;2023-03-14T14:10:18;15.90;76.80
73955;DHT22;62306;52.516;13.290;2023-03-14T14:12:48;16.20;74.80
73955;DHT22;62306;52.516;13.290;2023-03-14T14:15:19;16.20;74.20
73955;DHT22;62306;52.516;13.290;2023-03-14T14:17:50;16.10;73.80
73955;DHT22;62306;52.516;13.290;2023-03-14T14:20:25;15.80;74.20
73955;DHT22;62306;52.516;13.290;2023-03-14T14:22:58;15.60;75.50
73955;DHT22;62306;52.516;13.290;2023-03-14T14:25:25;15.40;76.60
73955;DHT22;62306;52.516;13.290;2023-03-14T14:27:52;15.40;77.40
73955;DHT22;62306;52.516;13.290;2023-03-14T14:30:29;15.20;77.10
73955;DHT22;62306;52.516;13.290;2023-03-14T14:33:12;15.10;78.00
73955;DHT22;62306;52.516;13.290;2023-03-14T14:35:50;15.00;79.30
73955;DHT22;62306;52.516;13.290;2023-03-14T14:38:18;14.90;80.00
73955;DHT22;62306;52.516;13.290;2023-03-14T14:40:48;14.90;80.70
73955;DHT22;62306;52.516;13.290;2023-03-14T14:43:17;14.90;79.90
73955;DHT22;62306;52.516;13.290;2023-03-14T14:45:48;14.90;80.20
73955;DHT22;62306;52.516;13.290;2023-03-14T14:48:21;14.80;80.30
73955;DHT22;62306;52.516;13.290;2023-03-14T14:50:56;14.70;81.00
73955;DHT22;62306;52.516;13.290;2023-03-14T14:53:28;14.60;80.30
73955;DHT22;62306;52.516;13.290;2023-03-14T14:55:56;14.70;80.40
73955;DHT22;62306;52.516;13.290;2023-03-14T14:58:26;14.70;80.30
73955;DHT22;62306;52.516;13.290;2023-03-14T15:00:56;14.70;79.70
73955;DHT22;62306;52.516;13.290;2023-03-14T15:03:27;14.60;80.50
73955;DHT22;62306;52.516;13.290;2023-03-14T15:05:56;14.60;80.80
73955;DHT22;62306;52.516;13.290;2023-03-14T15:08:24;14.50;81.90
73955;DHT22;62306;52.516;13.290;2023-03-14T15:10:52;14.40;82.40
73955;DHT22;62306;52.516;13.290;2023-03-14T15:13:18;14.30;82.00
73955;DHT22;62306;52.516;13.290;2023-03-14T15:15:45;13.30;83.20
73955;DHT22;62306;52.516;13.290;2023-03-14T15:18:14;11.80;90.70
73955;DHT22;62306;52.516;13.290;2023-03-14T15:20:42;10.40;95.20
73955;DHT22;62306;52.516;13.290;2023-03-14T15:23:15;9.50;96.60
73955;DHT22;62306;52.516;13.290;2023-03-14T15:25:42;8.90;97.80
73955;DHT22;62306;52.516;13.290;2023-03-14T15:28:15;8.50;98.80